createdAt,value
2022-11-23T00:01:58.174Z,7.18
2022-11-23T00:04:26.112Z,7.16
2022-11-23T00:06:54.029Z,7.18
2022-11-23T00:09:22.766Z,7.20
2022-11-23T00:11:51.939Z,7.18
2022-11-23T00:14:19.844Z,7.18
2022-11-23T00:16:48.158Z,7.23
2022-11-23T00:19:16.015Z,7.21
2022-11-23T00:21:44.045Z,7.21
2022-11-23T00:24:13.473Z,7.28
2022-11-23T00:26:41.277Z,7.22
2022-11-23T00:29:10.646Z,7.25
2022-11-23T00:31:38.421Z,7.28
2022-11-23T00:34:06.290Z,7.29
2022-11-23T00:36:34.187Z,7.30
2022-11-23T00:39:02.029Z,7.32
2022-11-23T00:41:29.937Z,7.32
2022-11-23T00:43:57.712Z,7.27
2022-11-23T00:46:28.179Z,7.31
2022-11-23T00:49:01.881Z,7.30
2022-11-23T00:51:32.478Z,7.31
2022-11-23T00:54:01.661Z,7.33
2022-11-23T00:56:31.433Z,7.31
2022-11-23T00:59:02.944Z,7.33
2022-11-23T01:01:34.849Z,7.29
2022-11-23T01:04:05.118Z,7.40
2022-11-23T01:06:34.441Z,7.30
2022-11-23T01:09:05.295Z,7.31
2022-11-23T01:11:34.323Z,7.34
2022-11-23T01:14:03.769Z,7.35
2022-11-23T01:16:36.393Z,7.34
2022-11-23T01:19:08.963Z,7.38
2022-11-23T01:21:38.019Z,7.36
2022-11-23T01:24:06.919Z,7.37
2022-11-23T01:26:36.976Z,7.35
2022-11-23T01:29:04.834Z,7.36
2022-11-23T01:31:34.059Z,7.35
2022-11-23T01:34:03.348Z,7.34
2022-11-23T01:36:34.424Z,7.37
2022-11-23T01:39:04.266Z,7.40
2022-11-23T01:41:34.874Z,7.39
2022-11-23T01:44:25.532Z,7.43
2022-11-23T01:46:54.998Z,7.45
2022-11-23T01:49:25.217Z,7.43
2022-11-23T01:51:58.131Z,7.39
2022-11-23T01:54:29.314Z,7.42
2022-11-23T01:57:01.970Z,7.45
2022-11-23T01:59:31.988Z,7.44
2022-11-23T02:02:01.989Z,7.51
2022-11-23T02:04:34.427Z,7.49
2022-11-23T02:07:04.317Z,7.42
2022-11-23T02:09:34.760Z,7.42
2022-11-23T02:12:02.601Z,7.46
2022-11-23T02:14:31.036Z,7.47
2022-11-23T02:17:01.353Z,7.49
2022-11-23T02:19:38.052Z,7.42
2022-11-23T02:22:11.434Z,7.51
2022-11-23T02:24:47.967Z,7.51
2022-11-23T02:27:17.949Z,7.50
2022-11-23T02:29:46.351Z,7.47
2022-11-23T02:32:20.830Z,7.47
2022-11-23T02:34:48.689Z,7.47
2022-11-23T02:37:17.107Z,7.47
2022-11-23T02:39:49.459Z,7.46
2022-11-23T02:42:19.648Z,7.49
2022-11-23T02:44:55.705Z,7.48
2022-11-23T02:47:23.630Z,7.47
2022-11-23T02:49:51.410Z,7.46
2022-11-23T02:52:19.997Z,7.50
2022-11-23T02:54:48.853Z,7.51
2022-11-23T02:57:17.972Z,7.52
2022-11-23T02:59:45.700Z,7.50
2022-11-23T03:02:17.352Z,7.51
2022-11-23T03:04:45.164Z,7.54
2022-11-23T03:07:13.077Z,7.51
2022-11-23T03:09:41.256Z,7.57
2022-11-23T03:12:09.675Z,7.56
2022-11-23T03:14:39.461Z,7.54
2022-11-23T03:17:07.376Z,7.51
2022-11-23T03:19:35.713Z,7.50
2022-11-23T03:22:04.826Z,7.55
2022-11-23T03:24:32.943Z,7.55
2022-11-23T03:27:01.122Z,7.55
2022-11-23T03:29:29.404Z,7.63
2022-11-23T03:31:58.886Z,7.62
2022-11-23T03:34:26.732Z,7.58
2022-11-23T03:36:54.594Z,7.62
2022-11-23T03:39:22.503Z,7.64
2022-11-23T03:41:50.557Z,7.65
2022-11-23T03:44:18.732Z,7.55
2022-11-23T03:46:46.690Z,7.49
2022-11-23T03:49:15.864Z,7.53
2022-11-23T03:51:44.637Z,7.49
2022-11-23T03:54:12.574Z,7.52
2022-11-23T03:56:42.418Z,7.55
2022-11-23T03:59:10.475Z,7.60
2022-11-23T04:01:38.326Z,7.60
2022-11-23T04:04:06.228Z,7.51
2022-11-23T04:06:35.464Z,7.48
2022-11-23T04:09:07.624Z,7.46
2022-11-23T04:11:35.559Z,7.53
2022-11-23T04:14:03.407Z,7.56
2022-11-23T04:16:31.351Z,7.52
2022-11-23T04:18:59.515Z,7.53
2022-11-23T04:21:28.134Z,7.54
2022-11-23T04:23:57.306Z,7.55
2022-11-23T04:26:38.475Z,7.54
2022-11-23T04:29:06.520Z,7.51
2022-11-23T04:31:36.412Z,7.61
2022-11-23T04:34:05.247Z,7.66
2022-11-23T04:36:33.174Z,7.58
2022-11-23T04:39:04.133Z,7.52
2022-11-23T04:41:32.015Z,7.43
2022-11-23T04:43:59.985Z,7.43
2022-11-23T04:46:27.811Z,7.37
2022-11-23T04:48:55.641Z,7.45
2022-11-23T04:51:23.593Z,7.41
2022-11-23T04:53:51.458Z,7.48
2022-11-23T04:56:23.007Z,7.50
2022-11-23T04:58:51.850Z,7.49
2022-11-23T05:01:19.843Z,7.52
2022-11-23T05:03:47.810Z,7.58
2022-11-23T05:06:15.625Z,7.61
2022-11-23T05:08:43.879Z,7.61
2022-11-23T05:11:11.830Z,7.58
2022-11-23T05:13:40.955Z,7.63
2022-11-23T05:16:09.304Z,7.62
2022-11-23T05:18:38.635Z,7.66
2022-11-23T05:21:06.791Z,7.66
2022-11-23T05:23:34.570Z,7.66
2022-11-23T05:26:02.534Z,7.61
2022-11-23T05:28:40.339Z,7.65
2022-11-23T05:31:11.094Z,7.63
2022-11-23T05:33:39.026Z,7.58
2022-11-23T05:36:08.470Z,7.57
2022-11-23T05:38:36.558Z,7.62
2022-11-23T05:41:04.362Z,7.61
2022-11-23T05:43:32.235Z,7.61
2022-11-23T05:46:00.319Z,7.58
2022-11-23T05:48:29.750Z,7.55
2022-11-23T05:51:05.169Z,7.56
2022-11-23T05:53:33.988Z,7.57
2022-11-23T05:56:03.713Z,7.51
2022-11-23T05:58:31.668Z,7.44
2022-11-23T06:01:21.824Z,7.46
2022-11-23T06:03:52.660Z,7.38
2022-11-23T06:06:20.646Z,7.39
2022-11-23T06:08:50.449Z,7.34
2022-11-23T06:11:18.377Z,7.36
2022-11-23T06:13:50.625Z,7.32
2022-11-23T06:16:20.406Z,7.29
2022-11-23T06:18:49.918Z,7.30
2022-11-23T06:21:19.148Z,7.31
2022-11-23T06:23:48.506Z,7.26
2022-11-23T06:26:16.955Z,7.21
2022-11-23T06:28:44.876Z,7.17
2022-11-23T06:31:12.751Z,7.16
2022-11-23T06:33:43.047Z,7.12
2022-11-23T06:36:11.627Z,7.13
2022-11-23T06:38:40.875Z,7.14
2022-11-23T06:41:08.694Z,7.12
2022-11-23T06:43:36.530Z,7.13
2022-11-23T06:46:06.274Z,7.09
2022-11-23T06:48:34.194Z,7.09
2022-11-23T06:51:03.299Z,7.08
2022-11-23T06:53:31.164Z,7.05
2022-11-23T06:56:01.853Z,7.10
2022-11-23T06:58:29.922Z,7.07
2022-11-23T07:01:01.061Z,7.11
2022-11-23T07:03:29.032Z,7.10
2022-11-23T07:05:57.331Z,7.07
2022-11-23T07:08:25.691Z,7.11
2022-11-23T07:10:53.500Z,7.11
2022-11-23T07:13:22.957Z,7.09
2022-11-23T07:15:59.610Z,7.14
2022-11-23T07:18:27.632Z,7.15
2022-11-23T07:20:55.518Z,7.20
2022-11-23T07:23:23.415Z,7.20
2022-11-23T07:25:51.378Z,7.21
2022-11-23T07:28:19.714Z,7.22
2022-11-23T07:30:51.422Z,7.23
2022-11-23T07:33:19.415Z,7.27
2022-11-23T07:35:48.401Z,7.27
2022-11-23T07:38:16.300Z,7.23
2022-11-23T07:40:44.392Z,7.28
2022-11-23T07:43:17.143Z,7.25
2022-11-23T07:45:48.376Z,7.21
2022-11-23T07:48:18.130Z,7.28
2022-11-23T07:50:45.953Z,7.25
2022-11-23T07:53:13.831Z,7.19
2022-11-23T07:55:53.988Z,7.25
2022-11-23T07:58:22.446Z,7.30
2022-11-23T08:00:50.402Z,7.26
2022-11-23T08:03:27.946Z,7.33
2022-11-23T08:05:56.663Z,7.32
2022-11-23T08:08:24.915Z,7.31
2022-11-23T08:10:54.230Z,7.34
2022-11-23T08:13:22.767Z,7.38
2022-11-23T08:15:55.528Z,7.44
2022-11-23T08:18:25.407Z,7.42
2022-11-23T08:20:55.153Z,7.53
2022-11-23T08:23:23.491Z,7.58
2022-11-23T08:25:52.594Z,7.60
2022-11-23T08:28:21.677Z,7.70
2022-11-23T08:30:51.086Z,7.59
2022-11-23T08:33:20.528Z,7.66
2022-11-23T08:35:50.082Z,7.58
2022-11-23T08:38:17.857Z,7.57
2022-11-23T08:40:45.696Z,7.54
2022-11-23T08:43:13.554Z,7.51
2022-11-23T08:45:41.461Z,7.57
2022-11-23T08:48:09.363Z,7.62
2022-11-23T08:50:37.445Z,7.64
2022-11-23T08:53:06.730Z,7.74
2022-11-23T08:55:34.518Z,7.73
2022-11-23T08:58:13.163Z,7.81
2022-11-23T09:00:48.711Z,7.90
2022-11-23T09:03:16.726Z,8.05
2022-11-23T09:05:46.522Z,8.24
2022-11-23T09:08:16.467Z,8.13
2022-11-23T09:10:44.541Z,8.20
2022-11-23T09:13:12.437Z,8.12
2022-11-23T09:15:40.149Z,8.20
2022-11-23T09:18:08.095Z,8.10
2022-11-23T09:20:36.003Z,8.07
2022-11-23T09:23:03.763Z,8.15
2022-11-23T09:25:33.181Z,8.23
2022-11-23T09:28:01.343Z,8.33
2022-11-23T09:30:38.752Z,8.21
2022-11-23T09:33:08.203Z,8.24
2022-11-23T09:35:47.998Z,8.24
2022-11-23T09:38:18.614Z,8.31
2022-11-23T09:40:48.334Z,8.15
2022-11-23T09:43:45.286Z,8.31
2022-11-23T09:46:22.601Z,8.33
2022-11-23T09:49:13.028Z,8.49
2022-11-23T09:51:42.764Z,8.53
2022-11-23T09:54:25.880Z,8.43
2022-11-23T09:57:01.673Z,8.40
2022-11-23T09:59:41.893Z,8.56
2022-11-23T10:02:20.921Z,8.43
2022-11-23T10:04:51.652Z,8.42
2022-11-23T10:07:44.247Z,8.43
2022-11-23T10:10:28.563Z,8.41
2022-11-23T10:13:07.575Z,8.48
2022-11-23T10:15:44.137Z,8.45
2022-11-23T10:18:31.550Z,8.44
2022-11-23T10:21:18.066Z,8.51
2022-11-23T10:23:55.787Z,8.54
2022-11-23T10:26:30.777Z,8.51
2022-11-23T10:29:14.893Z,8.52
2022-11-23T10:31:46.915Z,8.57
2022-11-23T10:34:17.993Z,8.59
2022-11-23T10:36:46.424Z,8.57
2022-11-23T10:39:24.028Z,8.68
2022-11-23T10:41:52.955Z,8.72
2022-11-23T10:44:32.332Z,8.81
2022-11-23T10:47:01.201Z,8.77
2022-11-23T10:49:33.277Z,8.81
2022-11-23T10:52:05.874Z,8.76
2022-11-23T10:54:36.928Z,8.75
2022-11-23T10:57:24.011Z,8.73
2022-11-23T11:00:03.867Z,8.73
2022-11-23T11:02:40.105Z,8.83
2022-11-23T11:05:46.020Z,8.99
2022-11-23T11:08:15.938Z,9.22
2022-11-23T11:10:47.029Z,9.37
2022-11-23T11:13:27.184Z,9.34
2022-11-23T11:15:59.539Z,9.45
2022-11-23T11:18:31.059Z,9.61
2022-11-23T11:21:08.144Z,9.53
2022-11-23T11:23:42.258Z,9.73
2022-11-23T11:26:21.844Z,10.19
2022-11-23T11:28:52.597Z,11.12
2022-11-23T11:31:36.302Z,10.97
2022-11-23T11:34:15.839Z,11.29
2022-11-23T11:36:50.068Z,11.16
2022-11-23T11:39:25.563Z,11.05
2022-11-23T11:41:55.879Z,10.88
2022-11-23T11:44:26.406Z,10.96
2022-11-23T11:47:02.707Z,10.92
2022-11-23T11:49:36.341Z,11.60
2022-11-23T11:52:10.029Z,11.59
2022-11-23T11:54:45.049Z,11.54
2022-11-23T11:57:18.804Z,12.11
2022-11-23T11:59:50.296Z,12.32
2022-11-23T12:02:26.423Z,12.35
2022-11-23T12:05:15.007Z,12.86
2022-11-23T12:07:50.298Z,13.66
2022-11-23T12:10:22.685Z,13.48
2022-11-23T12:12:50.598Z,13.42
2022-11-23T12:18:42.883Z,13.23
2022-11-23T12:21:23.987Z,13.82
2022-11-23T12:24:01.260Z,13.36
2022-11-23T12:26:46.309Z,12.89
2022-11-23T12:29:44.953Z,13.19
2022-11-23T12:32:23.659Z,13.14
2022-11-23T12:35:07.525Z,12.66
2022-11-23T12:37:48.438Z,12.58
2022-11-23T12:40:33.469Z,12.82
2022-11-23T12:43:03.821Z,12.57
2022-11-23T12:45:46.497Z,12.45
2022-11-23T12:48:28.318Z,12.76
2022-11-23T12:51:11.124Z,12.66
2022-11-23T12:53:51.682Z,11.89
2022-11-23T12:56:32.512Z,11.51
2022-11-23T12:59:02.418Z,11.56
2022-11-23T13:01:33.639Z,11.84
2022-11-23T13:04:38.978Z,11.88
2022-11-23T13:07:46.107Z,11.94
2022-11-23T13:10:45.880Z,11.89
2022-11-23T13:13:34.053Z,11.67
2022-11-23T13:16:33.285Z,11.92
2022-11-23T13:19:17.857Z,11.68
2022-11-23T13:21:47.818Z,11.80
2022-11-23T13:24:32.531Z,11.73
2022-11-23T13:27:37.940Z,12.00
2022-11-23T13:30:11.578Z,11.85
2022-11-23T13:32:56.388Z,11.81
2022-11-23T13:36:18.342Z,11.73
2022-11-23T13:38:49.752Z,12.11
2022-11-23T13:42:00.567Z,12.60
2022-11-23T13:44:48.431Z,12.00
2022-11-23T13:50:20.316Z,11.88
2022-11-23T13:52:51.153Z,11.78
2022-11-23T13:55:22.639Z,11.63
2022-11-23T13:58:23.789Z,11.61
2022-11-23T14:00:54.625Z,11.23
2022-11-23T14:03:52.321Z,10.96
2022-11-23T14:06:42.091Z,10.43
2022-11-23T14:09:17.302Z,10.38
2022-11-23T14:11:56.971Z,9.98
2022-11-23T14:14:28.853Z,9.81
2022-11-23T14:17:16.353Z,9.62
2022-11-23T14:20:05.415Z,9.49
2022-11-23T14:22:40.870Z,9.42
2022-11-23T14:25:31.456Z,9.44
2022-11-23T14:28:11.979Z,9.39
2022-11-23T14:30:53.013Z,9.31
2022-11-23T14:33:35.951Z,9.18
2022-11-23T14:36:24.485Z,9.06
2022-11-23T14:39:24.090Z,8.95
2022-11-23T14:41:57.211Z,8.81
2022-11-23T14:44:28.056Z,8.88
2022-11-23T14:47:06.566Z,8.82
2022-11-23T14:49:36.366Z,8.71
2022-11-23T14:52:06.641Z,8.71
2022-11-23T14:54:34.810Z,8.62
2022-11-23T14:57:05.855Z,8.51
2022-11-23T14:59:37.968Z,8.58
2022-11-23T15:02:15.587Z,8.48
2022-11-23T15:04:59.437Z,8.54
2022-11-23T15:07:32.264Z,8.42
2022-11-23T15:10:07.438Z,8.33
2022-11-23T15:12:43.512Z,8.28
2022-11-23T15:15:22.486Z,8.09
2022-11-23T15:17:55.723Z,8.11
2022-11-23T15:20:29.592Z,8.21
2022-11-23T15:22:58.487Z,8.34
2022-11-23T15:25:27.658Z,8.37
2022-11-23T15:27:55.990Z,8.53
2022-11-23T15:30:31.902Z,8.58
2022-11-23T15:33:11.201Z,8.65
2022-11-23T15:35:46.052Z,8.70
2022-11-23T15:38:23.339Z,8.69
2022-11-23T15:40:52.826Z,8.64
2022-11-23T15:43:21.324Z,8.69
2022-11-23T15:46:09.791Z,8.71
2022-11-23T15:48:37.972Z,8.71
2022-11-23T15:51:09.717Z,8.70
2022-11-23T15:53:54.484Z,8.73
2022-11-23T15:56:29.572Z,8.52
2022-11-23T15:59:00.977Z,8.22
2022-11-23T16:01:31.990Z,8.05
2022-11-23T16:04:06.680Z,7.91
2022-11-23T16:06:41.111Z,7.83
2022-11-23T16:09:50.704Z,7.77
2022-11-23T16:12:31.202Z,7.75
2022-11-23T16:15:00.599Z,7.72
2022-11-23T16:17:30.540Z,7.73
2022-11-23T16:20:03.502Z,7.67
2022-11-23T16:22:36.636Z,7.69
2022-11-23T16:25:09.410Z,7.71
2022-11-23T16:27:38.162Z,7.78
2022-11-23T16:30:08.030Z,7.76
2022-11-23T16:32:35.826Z,7.82
2022-11-23T16:35:17.575Z,7.80
2022-11-23T16:37:47.536Z,7.84
2022-11-23T16:40:16.009Z,7.83
2022-11-23T16:42:44.240Z,7.91
2022-11-23T16:45:12.465Z,7.89
2022-11-23T16:47:53.072Z,7.90
2022-11-23T16:50:22.075Z,7.95
2022-11-23T16:52:51.385Z,7.94
2022-11-23T16:55:20.289Z,7.95
2022-11-23T16:57:56.270Z,7.89
2022-11-23T17:00:25.464Z,7.77
2022-11-23T17:02:54.570Z,7.77
2022-11-23T17:05:23.842Z,7.72
2022-11-23T17:07:53.341Z,7.64
2022-11-23T17:10:21.439Z,7.57
2022-11-23T17:12:52.476Z,7.51
2022-11-23T17:15:21.837Z,7.44
2022-11-23T17:17:50.090Z,7.35
2022-11-23T17:20:19.636Z,7.27
2022-11-23T17:22:51.587Z,7.23
2022-11-23T17:25:20.839Z,7.18
2022-11-23T17:27:48.889Z,7.14
2022-11-23T17:30:18.941Z,7.10
2022-11-23T17:32:48.960Z,7.10
2022-11-23T17:35:17.513Z,7.06
2022-11-23T17:37:46.352Z,7.04
2022-11-23T17:40:16.738Z,7.05
2022-11-23T17:42:46.495Z,7.06
2022-11-23T17:45:14.927Z,7.00
2022-11-23T17:47:45.899Z,6.99
2022-11-23T17:50:17.509Z,7.00
2022-11-23T17:52:48.952Z,6.96
2022-11-23T17:55:17.231Z,6.96
2022-11-23T17:57:49.266Z,6.95
2022-11-23T18:00:23.315Z,6.95
2022-11-23T18:03:00.607Z,6.84
2022-11-23T18:05:29.870Z,6.94
2022-11-23T18:07:57.868Z,6.89
2022-11-23T18:10:33.135Z,6.91
2022-11-23T18:13:05.043Z,6.91
2022-11-23T18:15:33.923Z,6.92
2022-11-23T18:18:04.882Z,6.94
2022-11-23T18:20:34.279Z,6.94
2022-11-23T18:23:07.422Z,6.95
2022-11-23T18:25:35.194Z,7.00
2022-11-23T18:28:04.933Z,6.98
2022-11-23T18:30:33.822Z,6.97
2022-11-23T18:33:03.812Z,6.94
2022-11-23T18:35:32.134Z,6.99
2022-11-23T18:38:00.159Z,6.96
2022-11-23T18:40:31.190Z,6.98
2022-11-23T18:42:59.091Z,7.02
2022-11-23T18:45:32.130Z,7.00
2022-11-23T18:48:00.039Z,7.01
2022-11-23T18:50:28.027Z,7.04
2022-11-23T18:52:56.035Z,7.03
2022-11-23T18:55:25.038Z,7.04
2022-11-23T18:57:55.433Z,7.02
2022-11-23T19:00:23.701Z,7.01
2022-11-23T19:02:58.873Z,7.03
2022-11-23T19:05:29.839Z,7.03
2022-11-23T19:08:04.226Z,7.07
2022-11-23T19:10:34.286Z,7.07
2022-11-23T19:13:05.689Z,7.04
2022-11-23T19:15:34.740Z,7.08
2022-11-23T19:18:04.089Z,7.14
2022-11-23T19:20:32.175Z,7.14
2022-11-23T19:23:00.926Z,7.16
2022-11-23T19:25:30.737Z,7.23
2022-11-23T19:28:02.717Z,7.29
2022-11-23T19:30:31.855Z,7.30
2022-11-23T19:33:28.941Z,7.31
2022-11-23T19:36:07.820Z,7.31
2022-11-23T19:38:38.210Z,7.29
2022-11-23T19:41:06.276Z,7.34
2022-11-23T19:43:34.322Z,7.39
2022-11-23T19:46:04.298Z,7.41
2022-11-23T19:48:35.369Z,7.37
2022-11-23T19:51:04.947Z,7.49
2022-11-23T19:53:34.398Z,7.48
2022-11-23T19:56:03.567Z,7.52
2022-11-23T19:58:32.375Z,7.56
2022-11-23T20:01:01.314Z,7.54
2022-11-23T20:03:34.799Z,7.61
2022-11-23T20:06:06.809Z,7.66
2022-11-23T20:08:34.680Z,7.70
2022-11-23T20:11:09.066Z,7.66
2022-11-23T20:13:37.516Z,7.62
2022-11-23T20:16:06.593Z,7.69
2022-11-23T20:18:35.010Z,7.66
2022-11-23T20:21:12.250Z,7.72
2022-11-23T20:23:40.341Z,7.74
2022-11-23T20:26:08.831Z,7.71
2022-11-23T20:28:36.630Z,7.82
2022-11-23T20:31:05.978Z,7.80
2022-11-23T20:33:36.472Z,7.79
2022-11-23T20:36:15.220Z,7.84
2022-11-23T20:38:43.833Z,7.83
2022-11-23T20:41:15.388Z,7.82
2022-11-23T20:43:45.567Z,7.79
2022-11-23T20:46:19.253Z,7.61
2022-11-23T20:49:00.111Z,7.65
2022-11-23T20:51:32.463Z,7.65
2022-11-23T20:54:03.048Z,7.55
2022-11-23T20:56:32.357Z,7.49
2022-11-23T20:59:01.594Z,7.60
2022-11-23T21:01:29.598Z,7.66
2022-11-23T21:04:01.297Z,7.73
2022-11-23T21:06:34.428Z,7.69
2022-11-23T21:09:07.283Z,7.62
2022-11-23T21:11:53.051Z,7.52
2022-11-23T21:14:23.236Z,7.45
2022-11-23T21:16:55.131Z,7.39
2022-11-23T21:19:24.670Z,7.39
2022-11-23T21:21:55.976Z,7.36
2022-11-23T21:24:25.431Z,7.41
2022-11-23T21:26:53.500Z,7.41
2022-11-23T21:29:22.173Z,7.48
2022-11-23T21:31:56.478Z,7.41
2022-11-23T21:34:25.963Z,7.35
2022-11-23T21:36:57.933Z,7.29
2022-11-23T21:39:26.051Z,7.31
2022-11-23T21:41:55.216Z,7.43
2022-11-23T21:44:25.890Z,7.50
2022-11-23T21:46:59.007Z,7.49
2022-11-23T21:49:28.732Z,7.29
2022-11-23T21:52:01.678Z,7.22
2022-11-23T21:54:31.123Z,7.08
2022-11-23T21:57:01.012Z,6.99
2022-11-23T21:59:28.828Z,7.01
2022-11-23T22:02:00.290Z,7.09
2022-11-23T22:04:28.327Z,7.07
2022-11-23T22:06:56.156Z,7.07
2022-11-23T22:09:25.475Z,7.04
2022-11-23T22:11:53.671Z,7.06
2022-11-23T22:14:22.024Z,7.04
2022-11-23T22:16:50.807Z,7.00
2022-11-23T22:19:19.852Z,7.05
2022-11-23T22:21:48.135Z,7.03
2022-11-23T22:24:17.703Z,7.05
2022-11-23T22:26:48.663Z,7.02
2022-11-23T22:29:23.354Z,7.06
2022-11-23T22:31:51.320Z,7.09
2022-11-23T22:34:19.355Z,7.21
2022-11-23T22:36:51.112Z,7.20
2022-11-23T22:39:19.620Z,7.19
2022-11-23T22:41:48.992Z,7.31
2022-11-23T22:44:17.624Z,7.36
2022-11-23T22:46:45.520Z,7.41
2022-11-23T22:49:13.851Z,7.34
2022-11-23T22:51:41.754Z,7.29
2022-11-23T22:54:10.728Z,7.32
2022-11-23T22:56:39.117Z,7.32
2022-11-23T22:59:08.657Z,7.30
2022-11-23T23:01:36.896Z,7.24
2022-11-23T23:04:04.987Z,7.26
2022-11-23T23:06:34.900Z,7.25
2022-11-23T23:09:05.661Z,7.18
2022-11-23T23:11:35.028Z,7.17
2022-11-23T23:14:03.056Z,7.20
2022-11-23T23:16:32.602Z,7.20
2022-11-23T23:19:00.839Z,7.17
2022-11-23T23:21:29.859Z,7.18
2022-11-23T23:23:59.911Z,7.11
2022-11-23T23:26:29.140Z,7.19
2022-11-23T23:29:07.854Z,7.29
2022-11-23T23:31:37.568Z,7.24
2022-11-23T23:34:05.673Z,7.27
2022-11-23T23:36:36.490Z,7.11
2022-11-23T23:39:05.567Z,7.17
2022-11-23T23:41:33.578Z,7.08
2022-11-23T23:44:01.447Z,7.00
2022-11-23T23:46:29.456Z,6.89
2022-11-23T23:49:00.618Z,6.82
2022-11-23T23:51:28.643Z,6.70
2022-11-23T23:53:58.725Z,6.66
2022-11-23T23:56:28.113Z,6.64
2022-11-23T23:58:57.737Z,6.56
